sensor_id;sensor_type;location;lat;lon;timestamp;P1;durP1;ratioP1;P2;durP2;ratioP2
17127;SDS011;8679;50.842;4.322;2024-03-22T00:01:49;19.00;;;9.30;;
17127;SDS011;8679;50.842;4.322;2024-03-22T00:04:16;17.30;;;6.93;;
17127;SDS011;8679;50.842;4.322;2024-03-22T00:06:42;15.67;;;9.20;;
17127;SDS011;8679;50.842;4.322;2024-03-22T00:09:08;15.37;;;7.43;;
17127;SDS011;8679;50.842;4.322;2024-03-22T00:11:35;13.23;;;7.57;;
17127;SDS011;8679;50.842;4.322;2024-03-22T00:14:01;14.47;;;7.33;;
17127;SDS011;8679;50.842;4.322;2024-03-22T00:16:27;17.70;;;7.10;;
17127;SDS011;8679;50.842;4.322;2024-03-22T00:18:53;14.00;;;8.00;;
17127;SDS011;8679;50.842;4.322;2024-03-22T00:21:21;14.17;;;7.07;;
17127;SDS011;8679;50.842;4.322;2024-03-22T00:23:47;19.10;;;6.87;;
17127;SDS011;8679;50.842;4.322;2024-03-22T00:26:13;15.67;;;7.83;;
17127;SDS011;8679;50.842;4.322;2024-03-22T00:28:39;16.97;;;8.33;;
17127;SDS011;8679;50.842;4.322;2024-03-22T00:31:05;17.13;;;8.30;;
17127;SDS011;8679;50.842;4.322;2024-03-22T00:33:31;14.50;;;7.20;;
17127;SDS011;8679;50.842;4.322;2024-03-22T00:35:57;18.13;;;8.47;;
17127;SDS011;8679;50.842;4.322;2024-03-22T00:38:24;15.83;;;7.67;;
17127;SDS011;8679;50.842;4.322;2024-03-22T00:40:50;17.77;;;9.30;;
17127;SDS011;8679;50.842;4.322;2024-03-22T00:43:16;18.37;;;8.40;;
17127;SDS011;8679;50.842;4.322;2024-03-22T00:45:42;16.07;;;7.43;;
17127;SDS011;8679;50.842;4.322;2024-03-22T00:48:08;14.10;;;7.47;;
17127;SDS011;8679;50.842;4.322;2024-03-22T00:50:34;17.80;;;8.53;;
17127;SDS011;8679;50.842;4.322;2024-03-22T00:53:00;14.73;;;7.90;;
17127;SDS011;8679;50.842;4.322;2024-03-22T00:55:28;16.53;;;7.37;;
17127;SDS011;8679;50.842;4.322;2024-03-22T00:57:54;15.73;;;7.77;;
17127;SDS011;8679;50.842;4.322;2024-03-22T01:00:20;12.93;;;7.40;;
17127;SDS011;8679;50.842;4.322;2024-03-22T01:02:47;20.43;;;8.83;;
17127;SDS011;8679;50.842;4.322;2024-03-22T01:05:13;18.17;;;8.67;;
17127;SDS011;8679;50.842;4.322;2024-03-22T01:07:39;22.23;;;9.07;;
17127;SDS011;8679;50.842;4.322;2024-03-22T01:10:06;18.17;;;8.07;;
17127;SDS011;8679;50.842;4.322;2024-03-22T01:12:32;21.77;;;9.53;;
17127;SDS011;8679;50.842;4.322;2024-03-22T01:14:58;16.73;;;8.90;;
17127;SDS011;8679;50.842;4.322;2024-03-22T01:17:25;18.43;;;8.97;;
17127;SDS011;8679;50.842;4.322;2024-03-22T01:19:51;15.87;;;8.13;;
17127;SDS011;8679;50.842;4.322;2024-03-22T01:22:17;17.37;;;8.30;;
17127;SDS011;8679;50.842;4.322;2024-03-22T01:24:44;17.83;;;8.30;;
17127;SDS011;8679;50.842;4.322;2024-03-22T01:27:10;19.00;;;8.30;;
17127;SDS011;8679;50.842;4.322;2024-03-22T01:29:36;18.07;;;9.03;;
17127;SDS011;8679;50.842;4.322;2024-03-22T01:32:02;14.00;;;8.50;;
17127;SDS011;8679;50.842;4.322;2024-03-22T01:34:28;16.23;;;8.97;;
17127;SDS011;8679;50.842;4.322;2024-03-22T01:36:54;15.60;;;8.30;;
17127;SDS011;8679;50.842;4.322;2024-03-22T01:39:21;18.67;;;8.53;;
17127;SDS011;8679;50.842;4.322;2024-03-22T01:41:47;14.80;;;7.73;;
17127;SDS011;8679;50.842;4.322;2024-03-22T01:44:13;17.00;;;7.63;;
17127;SDS011;8679;50.842;4.322;2024-03-22T01:46:40;20.53;;;8.87;;
17127;SDS011;8679;50.842;4.322;2024-03-22T01:49:07;15.53;;;8.27;;
17127;SDS011;8679;50.842;4.322;2024-03-22T01:51:34;15.57;;;8.10;;
17127;SDS011;8679;50.842;4.322;2024-03-22T01:54:04;14.13;;;7.50;;
17127;SDS011;8679;50.842;4.322;2024-03-22T01:56:30;14.77;;;7.37;;
17127;SDS011;8679;50.842;4.322;2024-03-22T01:58:56;15.53;;;7.73;;
17127;SDS011;8679;50.842;4.322;2024-03-22T02:01:23;15.87;;;7.67;;
17127;SDS011;8679;50.842;4.322;2024-03-22T02:03:49;17.53;;;7.93;;
17127;SDS011;8679;50.842;4.322;2024-03-22T02:06:15;17.03;;;7.93;;
17127;SDS011;8679;50.842;4.322;2024-03-22T02:08:41;13.43;;;7.03;;
17127;SDS011;8679;50.842;4.322;2024-03-22T02:11:09;15.00;;;7.43;;
17127;SDS011;8679;50.842;4.322;2024-03-22T02:13:35;15.30;;;7.90;;
17127;SDS011;8679;50.842;4.322;2024-03-22T02:16:04;16.40;;;6.73;;
17127;SDS011;8679;50.842;4.322;2024-03-22T02:18:31;16.33;;;7.30;;
17127;SDS011;8679;50.842;4.322;2024-03-22T02:20:57;14.07;;;7.40;;
17127;SDS011;8679;50.842;4.322;2024-03-22T02:23:35;16.53;;;7.63;;
17127;SDS011;8679;50.842;4.322;2024-03-22T02:26:02;13.47;;;6.67;;
17127;SDS011;8679;50.842;4.322;2024-03-22T02:28:28;14.73;;;7.37;;
17127;SDS011;8679;50.842;4.322;2024-03-22T02:30:55;16.20;;;7.53;;
17127;SDS011;8679;50.842;4.322;2024-03-22T02:33:21;15.10;;;6.43;;
17127;SDS011;8679;50.842;4.322;2024-03-22T02:35:47;15.17;;;7.87;;
17127;SDS011;8679;50.842;4.322;2024-03-22T02:38:14;15.13;;;7.90;;
17127;SDS011;8679;50.842;4.322;2024-03-22T02:40:40;13.87;;;7.13;;
17127;SDS011;8679;50.842;4.322;2024-03-22T02:43:06;13.07;;;7.03;;
17127;SDS011;8679;50.842;4.322;2024-03-22T02:45:32;16.10;;;8.17;;
17127;SDS011;8679;50.842;4.322;2024-03-22T02:47:58;20.70;;;8.17;;
17127;SDS011;8679;50.842;4.322;2024-03-22T02:50:24;16.13;;;6.73;;
17127;SDS011;8679;50.842;4.322;2024-03-22T02:52:50;11.70;;;6.10;;
17127;SDS011;8679;50.842;4.322;2024-03-22T02:55:16;25.90;;;7.27;;
17127;SDS011;8679;50.842;4.322;2024-03-22T02:57:42;15.37;;;8.03;;
17127;SDS011;8679;50.842;4.322;2024-03-22T03:00:08;18.53;;;7.13;;
17127;SDS011;8679;50.842;4.322;2024-03-22T03:02:35;11.63;;;6.80;;
17127;SDS011;8679;50.842;4.322;2024-03-22T03:05:01;16.70;;;6.63;;
17127;SDS011;8679;50.842;4.322;2024-03-22T03:07:27;17.60;;;7.60;;
17127;SDS011;8679;50.842;4.322;2024-03-22T03:09:53;12.80;;;5.70;;
17127;SDS011;8679;50.842;4.322;2024-03-22T03:12:19;13.73;;;6.63;;
17127;SDS011;8679;50.842;4.322;2024-03-22T03:14:46;14.77;;;6.40;;
17127;SDS011;8679;50.842;4.322;2024-03-22T03:17:12;16.20;;;7.30;;
17127;SDS011;8679;50.842;4.322;2024-03-22T03:19:38;14.77;;;6.17;;
17127;SDS011;8679;50.842;4.322;2024-03-22T03:22:04;12.87;;;6.57;;
17127;SDS011;8679;50.842;4.322;2024-03-22T03:24:30;14.80;;;6.77;;
17127;SDS011;8679;50.842;4.322;2024-03-22T03:26:56;13.33;;;7.03;;
17127;SDS011;8679;50.842;4.322;2024-03-22T03:29:22;12.37;;;5.90;;
17127;SDS011;8679;50.842;4.322;2024-03-22T03:31:49;12.23;;;6.93;;
17127;SDS011;8679;50.842;4.322;2024-03-22T03:34:15;18.00;;;6.30;;
17127;SDS011;8679;50.842;4.322;2024-03-22T03:36:41;16.23;;;6.43;;
17127;SDS011;8679;50.842;4.322;2024-03-22T03:39:07;12.80;;;6.23;;
17127;SDS011;8679;50.842;4.322;2024-03-22T03:41:33;11.60;;;5.43;;
17127;SDS011;8679;50.842;4.322;2024-03-22T03:43:59;11.00;;;5.43;;
17127;SDS011;8679;50.842;4.322;2024-03-22T03:46:25;8.77;;;4.60;;
17127;SDS011;8679;50.842;4.322;2024-03-22T03:48:51;12.80;;;5.83;;
17127;SDS011;8679;50.842;4.322;2024-03-22T03:51:17;8.30;;;4.97;;
17127;SDS011;8679;50.842;4.322;2024-03-22T03:53:43;9.53;;;5.90;;
17127;SDS011;8679;50.842;4.322;2024-03-22T03:56:09;11.97;;;4.80;;
17127;SDS011;8679;50.842;4.322;2024-03-22T03:58:35;8.90;;;4.73;;
17127;SDS011;8679;50.842;4.322;2024-03-22T04:01:05;14.93;;;5.40;;
17127;SDS011;8679;50.842;4.322;2024-03-22T04:03:31;11.27;;;5.30;;
17127;SDS011;8679;50.842;4.322;2024-03-22T04:05:57;10.17;;;4.57;;
17127;SDS011;8679;50.842;4.322;2024-03-22T04:08:27;9.47;;;4.90;;
17127;SDS011;8679;50.842;4.322;2024-03-22T04:10:53;12.70;;;5.13;;
17127;SDS011;8679;50.842;4.322;2024-03-22T04:13:22;9.67;;;5.10;;
17127;SDS011;8679;50.842;4.322;2024-03-22T04:15:48;8.60;;;4.80;;
17127;SDS011;8679;50.842;4.322;2024-03-22T04:18:14;12.60;;;4.83;;
17127;SDS011;8679;50.842;4.322;2024-03-22T04:20:40;9.57;;;4.87;;
17127;SDS011;8679;50.842;4.322;2024-03-22T04:23:06;13.03;;;5.23;;
17127;SDS011;8679;50.842;4.322;2024-03-22T04:25:32;10.43;;;4.80;;
17127;SDS011;8679;50.842;4.322;2024-03-22T04:27:59;9.83;;;5.03;;
17127;SDS011;8679;50.842;4.322;2024-03-22T04:30:25;10.20;;;5.37;;
17127;SDS011;8679;50.842;4.322;2024-03-22T04:32:51;8.00;;;4.83;;
17127;SDS011;8679;50.842;4.322;2024-03-22T04:35:17;10.13;;;4.17;;
17127;SDS011;8679;50.842;4.322;2024-03-22T04:37:43;5.07;;;3.60;;
17127;SDS011;8679;50.842;4.322;2024-03-22T04:40:10;12.30;;;4.67;;
17127;SDS011;8679;50.842;4.322;2024-03-22T04:42:36;9.33;;;3.97;;
17127;SDS011;8679;50.842;4.322;2024-03-22T04:45:02;7.47;;;4.37;;
17127;SDS011;8679;50.842;4.322;2024-03-22T04:47:28;8.77;;;4.47;;
17127;SDS011;8679;50.842;4.322;2024-03-22T04:49:54;14.63;;;4.90;;
17127;SDS011;8679;50.842;4.322;2024-03-22T04:52:20;11.27;;;5.60;;
17127;SDS011;8679;50.842;4.322;2024-03-22T04:54:46;8.80;;;4.57;;
17127;SDS011;8679;50.842;4.322;2024-03-22T04:57:13;8.07;;;4.53;;
17127;SDS011;8679;50.842;4.322;2024-03-22T04:59:39;9.77;;;3.87;;
17127;SDS011;8679;50.842;4.322;2024-03-22T05:02:05;7.60;;;3.87;;
17127;SDS011;8679;50.842;4.322;2024-03-22T05:04:31;7.57;;;3.47;;
17127;SDS011;8679;50.842;4.322;2024-03-22T05:06:57;9.27;;;4.27;;
17127;SDS011;8679;50.842;4.322;2024-03-22T05:09:23;9.80;;;4.53;;
17127;SDS011;8679;50.842;4.322;2024-03-22T05:11:49;9.37;;;4.20;;
17127;SDS011;8679;50.842;4.322;2024-03-22T05:14:16;7.67;;;4.37;;
17127;SDS011;8679;50.842;4.322;2024-03-22T05:16:42;8.23;;;4.03;;
17127;SDS011;8679;50.842;4.322;2024-03-22T05:19:08;6.70;;;3.23;;
17127;SDS011;8679;50.842;4.322;2024-03-22T05:21:34;9.37;;;4.60;;
17127;SDS011;8679;50.842;4.322;2024-03-22T05:24:00;7.87;;;4.27;;
17127;SDS011;8679;50.842;4.322;2024-03-22T05:26:26;8.80;;;4.57;;
17127;SDS011;8679;50.842;4.322;2024-03-22T05:28:52;14.60;;;3.87;;
17127;SDS011;8679;50.842;4.322;2024-03-22T05:31:18;7.80;;;4.53;;
17127;SDS011;8679;50.842;4.322;2024-03-22T05:33:45;6.90;;;3.67;;
17127;SDS011;8679;50.842;4.322;2024-03-22T05:36:12;12.03;;;4.77;;
17127;SDS011;8679;50.842;4.322;2024-03-22T05:38:38;10.30;;;4.83;;
17127;SDS011;8679;50.842;4.322;2024-03-22T05:41:04;5.83;;;3.80;;
17127;SDS011;8679;50.842;4.322;2024-03-22T05:43:30;7.87;;;3.60;;
17127;SDS011;8679;50.842;4.322;2024-03-22T05:45:56;11.73;;;4.87;;
17127;SDS011;8679;50.842;4.322;2024-03-22T05:48:22;10.13;;;4.00;;
17127;SDS011;8679;50.842;4.322;2024-03-22T05:50:48;7.33;;;3.80;;
17127;SDS011;8679;50.842;4.322;2024-03-22T05:53:14;7.40;;;3.93;;
17127;SDS011;8679;50.842;4.322;2024-03-22T05:55:41;9.00;;;3.83;;
17127;SDS011;8679;50.842;4.322;2024-03-22T05:58:08;13.47;;;4.43;;
17127;SDS011;8679;50.842;4.322;2024-03-22T06:00:34;6.10;;;3.87;;
17127;SDS011;8679;50.842;4.322;2024-03-22T06:03:00;10.30;;;4.30;;
17127;SDS011;8679;50.842;4.322;2024-03-22T06:05:26;11.50;;;5.13;;
17127;SDS011;8679;50.842;4.322;2024-03-22T06:07:52;9.53;;;4.23;;
17127;SDS011;8679;50.842;4.322;2024-03-22T06:10:18;8.93;;;4.80;;
17127;SDS011;8679;50.842;4.322;2024-03-22T06:12:44;8.73;;;4.37;;
17127;SDS011;8679;50.842;4.322;2024-03-22T06:15:12;9.63;;;4.77;;
17127;SDS011;8679;50.842;4.322;2024-03-22T06:17:38;12.10;;;5.60;;
17127;SDS011;8679;50.842;4.322;2024-03-22T06:20:04;11.57;;;4.93;;
17127;SDS011;8679;50.842;4.322;2024-03-22T06:22:31;8.33;;;4.43;;
17127;SDS011;8679;50.842;4.322;2024-03-22T06:24:57;8.87;;;4.57;;
17127;SDS011;8679;50.842;4.322;2024-03-22T06:27:23;12.63;;;6.03;;
17127;SDS011;8679;50.842;4.322;2024-03-22T06:29:49;9.03;;;4.43;;
17127;SDS011;8679;50.842;4.322;2024-03-22T06:32:15;12.77;;;6.23;;
17127;SDS011;8679;50.842;4.322;2024-03-22T06:34:41;17.67;;;6.33;;
17127;SDS011;8679;50.842;4.322;2024-03-22T06:37:08;11.77;;;5.23;;
17127;SDS011;8679;50.842;4.322;2024-03-22T06:39:34;9.83;;;4.50;;
17127;SDS011;8679;50.842;4.322;2024-03-22T06:42:00;8.80;;;4.07;;
17127;SDS011;8679;50.842;4.322;2024-03-22T06:44:26;13.50;;;5.10;;
17127;SDS011;8679;50.842;4.322;2024-03-22T06:46:57;12.33;;;4.50;;
17127;SDS011;8679;50.842;4.322;2024-03-22T06:49:23;10.07;;;4.03;;
17127;SDS011;8679;50.842;4.322;2024-03-22T06:51:49;10.83;;;4.17;;
17127;SDS011;8679;50.842;4.322;2024-03-22T06:54:15;9.47;;;4.40;;
17127;SDS011;8679;50.842;4.322;2024-03-22T06:56:41;10.77;;;4.57;;
17127;SDS011;8679;50.842;4.322;2024-03-22T06:59:07;7.40;;;4.07;;
17127;SDS011;8679;50.842;4.322;2024-03-22T07:01:33;9.27;;;4.37;;
17127;SDS011;8679;50.842;4.322;2024-03-22T07:03:59;11.73;;;4.33;;
17127;SDS011;8679;50.842;4.322;2024-03-22T07:06:25;12.47;;;4.70;;
17127;SDS011;8679;50.842;4.322;2024-03-22T07:08:51;5.83;;;3.13;;
17127;SDS011;8679;50.842;4.322;2024-03-22T07:11:17;5.00;;;2.90;;
17127;SDS011;8679;50.842;4.322;2024-03-22T07:13:43;9.50;;;4.27;;
17127;SDS011;8679;50.842;4.322;2024-03-22T07:16:09;9.60;;;4.23;;
17127;SDS011;8679;50.842;4.322;2024-03-22T07:18:35;10.03;;;3.97;;
17127;SDS011;8679;50.842;4.322;2024-03-22T07:21:01;9.00;;;4.67;;
17127;SDS011;8679;50.842;4.322;2024-03-22T07:23:28;7.77;;;3.80;;
17127;SDS011;8679;50.842;4.322;2024-03-22T07:25:55;10.70;;;4.10;;
17127;SDS011;8679;50.842;4.322;2024-03-22T07:28:21;8.33;;;3.97;;
17127;SDS011;8679;50.842;4.322;2024-03-22T07:30:47;9.87;;;4.53;;
17127;SDS011;8679;50.842;4.322;2024-03-22T07:33:13;10.53;;;3.90;;
17127;SDS011;8679;50.842;4.322;2024-03-22T07:35:41;8.07;;;3.97;;
17127;SDS011;8679;50.842;4.322;2024-03-22T07:38:07;6.77;;;3.07;;
17127;SDS011;8679;50.842;4.322;2024-03-22T07:40:33;7.50;;;2.83;;
17127;SDS011;8679;50.842;4.322;2024-03-22T07:42:59;7.30;;;3.20;;
17127;SDS011;8679;50.842;4.322;2024-03-22T07:45:31;8.50;;;3.60;;
17127;SDS011;8679;50.842;4.322;2024-03-22T07:47:57;8.17;;;2.93;;
17127;SDS011;8679;50.842;4.322;2024-03-22T07:50:23;6.83;;;3.47;;
17127;SDS011;8679;50.842;4.322;2024-03-22T07:52:49;6.10;;;3.27;;
17127;SDS011;8679;50.842;4.322;2024-03-22T07:55:15;6.77;;;3.50;;
17127;SDS011;8679;50.842;4.322;2024-03-22T07:57:41;3.67;;;2.27;;
17127;SDS011;8679;50.842;4.322;2024-03-22T08:00:07;7.00;;;3.47;;
17127;SDS011;8679;50.842;4.322;2024-03-22T08:02:34;5.87;;;2.77;;
17127;SDS011;8679;50.842;4.322;2024-03-22T08:05:00;5.77;;;2.40;;
17127;SDS011;8679;50.842;4.322;2024-03-22T08:07:27;4.43;;;2.50;;
17127;SDS011;8679;50.842;4.322;2024-03-22T08:09:54;4.03;;;2.63;;
17127;SDS011;8679;50.842;4.322;2024-03-22T08:12:21;19.83;;;2.80;;
17127;SDS011;8679;50.842;4.322;2024-03-22T08:14:47;4.63;;;2.93;;
17127;SDS011;8679;50.842;4.322;2024-03-22T08:17:13;5.00;;;2.67;;
17127;SDS011;8679;50.842;4.322;2024-03-22T08:19:40;6.23;;;2.93;;
17127;SDS011;8679;50.842;4.322;2024-03-22T08:22:06;10.03;;;3.90;;
17127;SDS011;8679;50.842;4.322;2024-03-22T08:24:32;5.87;;;3.30;;
17127;SDS011;8679;50.842;4.322;2024-03-22T08:26:59;8.50;;;4.37;;
17127;SDS011;8679;50.842;4.322;2024-03-22T08:29:25;4.97;;;2.60;;
17127;SDS011;8679;50.842;4.322;2024-03-22T08:31:51;10.53;;;4.43;;
17127;SDS011;8679;50.842;4.322;2024-03-22T08:34:17;10.97;;;4.20;;
17127;SDS011;8679;50.842;4.322;2024-03-22T08:36:43;9.80;;;4.87;;
17127;SDS011;8679;50.842;4.322;2024-03-22T08:39:09;10.77;;;4.33;;
17127;SDS011;8679;50.842;4.322;2024-03-22T08:41:36;8.63;;;4.43;;
17127;SDS011;8679;50.842;4.322;2024-03-22T08:44:03;7.60;;;4.50;;
17127;SDS011;8679;50.842;4.322;2024-03-22T08:46:29;10.60;;;4.70;;
17127;SDS011;8679;50.842;4.322;2024-03-22T08:48:57;10.93;;;4.87;;
17127;SDS011;8679;50.842;4.322;2024-03-22T08:51:23;9.57;;;4.53;;
17127;SDS011;8679;50.842;4.322;2024-03-22T08:53:49;7.90;;;5.50;;
17127;SDS011;8679;50.842;4.322;2024-03-22T08:56:16;9.63;;;4.57;;
17127;SDS011;8679;50.842;4.322;2024-03-22T08:58:42;7.87;;;3.00;;
17127;SDS011;8679;50.842;4.322;2024-03-22T09:01:08;7.97;;;4.10;;
17127;SDS011;8679;50.842;4.322;2024-03-22T09:03:36;8.47;;;4.07;;
17127;SDS011;8679;50.842;4.322;2024-03-22T09:06:02;9.00;;;4.57;;
17127;SDS011;8679;50.842;4.322;2024-03-22T09:08:29;9.37;;;4.13;;
17127;SDS011;8679;50.842;4.322;2024-03-22T09:10:55;7.53;;;3.60;;
17127;SDS011;8679;50.842;4.322;2024-03-22T09:13:21;13.83;;;4.20;;
17127;SDS011;8679;50.842;4.322;2024-03-22T09:15:47;7.67;;;3.73;;
17127;SDS011;8679;50.842;4.322;2024-03-22T09:18:13;6.77;;;4.03;;
17127;SDS011;8679;50.842;4.322;2024-03-22T09:20:39;10.87;;;4.90;;
17127;SDS011;8679;50.842;4.322;2024-03-22T09:23:05;6.97;;;4.00;;
17127;SDS011;8679;50.842;4.322;2024-03-22T09:25:31;10.30;;;4.93;;
17127;SDS011;8679;50.842;4.322;2024-03-22T09:27:58;7.40;;;3.73;;
17127;SDS011;8679;50.842;4.322;2024-03-22T09:30:24;6.57;;;3.90;;
17127;SDS011;8679;50.842;4.322;2024-03-22T09:32:50;7.57;;;3.97;;
17127;SDS011;8679;50.842;4.322;2024-03-22T09:35:17;9.60;;;4.47;;
17127;SDS011;8679;50.842;4.322;2024-03-22T09:37:43;8.00;;;4.10;;
17127;SDS011;8679;50.842;4.322;2024-03-22T09:40:09;7.67;;;4.63;;
17127;SDS011;8679;50.842;4.322;2024-03-22T09:42:38;10.70;;;4.37;;
17127;SDS011;8679;50.842;4.322;2024-03-22T09:45:04;11.17;;;4.60;;
17127;SDS011;8679;50.842;4.322;2024-03-22T09:47:33;8.43;;;3.90;;
17127;SDS011;8679;50.842;4.322;2024-03-22T09:49:59;8.10;;;4.20;;
17127;SDS011;8679;50.842;4.322;2024-03-22T09:52:26;9.70;;;5.00;;
17127;SDS011;8679;50.842;4.322;2024-03-22T09:54:52;10.30;;;4.60;;
17127;SDS011;8679;50.842;4.322;2024-03-22T09:57:18;6.57;;;3.97;;
17127;SDS011;8679;50.842;4.322;2024-03-22T09:59:47;5.47;;;3.37;;
17127;SDS011;8679;50.842;4.322;2024-03-22T10:02:13;7.50;;;3.70;;
17127;SDS011;8679;50.842;4.322;2024-03-22T10:04:40;7.40;;;4.00;;
17127;SDS011;8679;50.842;4.322;2024-03-22T10:07:06;7.90;;;4.30;;
17127;SDS011;8679;50.842;4.322;2024-03-22T10:09:35;11.10;;;4.40;;
17127;SDS011;8679;50.842;4.322;2024-03-22T10:12:02;7.67;;;3.73;;
17127;SDS011;8679;50.842;4.322;2024-03-22T10:14:29;10.50;;;4.77;;
17127;SDS011;8679;50.842;4.322;2024-03-22T10:16:56;10.73;;;4.40;;
17127;SDS011;8679;50.842;4.322;2024-03-22T10:19:23;22.93;;;4.80;;
17127;SDS011;8679;50.842;4.322;2024-03-22T10:22:02;7.10;;;4.03;;
17127;SDS011;8679;50.842;4.322;2024-03-22T10:24:28;6.67;;;3.83;;
17127;SDS011;8679;50.842;4.322;2024-03-22T10:26:55;7.57;;;4.10;;
17127;SDS011;8679;50.842;4.322;2024-03-22T10:29:21;6.87;;;4.23;;
17127;SDS011;8679;50.842;4.322;2024-03-22T10:31:48;10.63;;;4.23;;
17127;SDS011;8679;50.842;4.322;2024-03-22T10:34:14;8.83;;;4.70;;
17127;SDS011;8679;50.842;4.322;2024-03-22T10:36:40;7.60;;;4.07;;
17127;SDS011;8679;50.842;4.322;2024-03-22T10:39:07;9.47;;;4.80;;
17127;SDS011;8679;50.842;4.322;2024-03-22T10:41:33;10.43;;;4.90;;
17127;SDS011;8679;50.842;4.322;2024-03-22T10:44:00;4.90;;;3.43;;
17127;SDS011;8679;50.842;4.322;2024-03-22T10:46:29;5.33;;;3.40;;
17127;SDS011;8679;50.842;4.322;2024-03-22T10:48:56;5.50;;;3.60;;
17127;SDS011;8679;50.842;4.322;2024-03-22T10:51:25;7.43;;;3.77;;
17127;SDS011;8679;50.842;4.322;2024-03-22T10:53:52;7.87;;;3.60;;
17127;SDS011;8679;50.842;4.322;2024-03-22T10:56:19;6.03;;;3.60;;
17127;SDS011;8679;50.842;4.322;2024-03-22T10:58:47;9.93;;;4.43;;
17127;SDS011;8679;50.842;4.322;2024-03-22T11:01:23;6.97;;;4.10;;
17127;SDS011;8679;50.842;4.322;2024-03-22T11:03:50;8.37;;;4.50;;
17127;SDS011;8679;50.842;4.322;2024-03-22T11:06:19;11.57;;;4.73;;
17127;SDS011;8679;50.842;4.322;2024-03-22T11:08:49;7.57;;;4.03;;
17127;SDS011;8679;50.842;4.322;2024-03-22T11:11:17;6.93;;;3.83;;
17127;SDS011;8679;50.842;4.322;2024-03-22T11:13:46;11.93;;;3.93;;
17127;SDS011;8679;50.842;4.322;2024-03-22T11:16:16;7.13;;;3.53;;
17127;SDS011;8679;50.842;4.322;2024-03-22T11:18:42;5.43;;;3.40;;
17127;SDS011;8679;50.842;4.322;2024-03-22T11:21:08;4.70;;;3.43;;
17127;SDS011;8679;50.842;4.322;2024-03-22T11:23:35;6.80;;;3.43;;
17127;SDS011;8679;50.842;4.322;2024-03-22T11:26:02;7.07;;;3.63;;
17127;SDS011;8679;50.842;4.322;2024-03-22T11:28:29;8.17;;;3.40;;
17127;SDS011;8679;50.842;4.322;2024-03-22T11:30:55;6.67;;;3.43;;
17127;SDS011;8679;50.842;4.322;2024-03-22T11:33:21;6.43;;;3.50;;
17127;SDS011;8679;50.842;4.322;2024-03-22T11:35:48;10.13;;;3.87;;
17127;SDS011;8679;50.842;4.322;2024-03-22T11:38:15;6.40;;;3.93;;
17127;SDS011;8679;50.842;4.322;2024-03-22T11:40:43;9.73;;;4.10;;
17127;SDS011;8679;50.842;4.322;2024-03-22T11:43:10;10.03;;;4.17;;
17127;SDS011;8679;50.842;4.322;2024-03-22T11:45:36;9.10;;;3.97;;
17127;SDS011;8679;50.842;4.322;2024-03-22T11:48:02;6.37;;;3.63;;
17127;SDS011;8679;50.842;4.322;2024-03-22T11:50:29;7.10;;;4.17;;
17127;SDS011;8679;50.842;4.322;2024-03-22T11:52:55;7.30;;;3.37;;
17127;SDS011;8679;50.842;4.322;2024-03-22T11:55:22;8.07;;;3.63;;
17127;SDS011;8679;50.842;4.322;2024-03-22T11:57:48;9.00;;;3.77;;
17127;SDS011;8679;50.842;4.322;2024-03-22T12:00:14;7.37;;;3.77;;
17127;SDS011;8679;50.842;4.322;2024-03-22T12:02:41;6.47;;;3.63;;
17127;SDS011;8679;50.842;4.322;2024-03-22T12:05:07;6.70;;;3.73;;
17127;SDS011;8679;50.842;4.322;2024-03-22T12:07:33;7.07;;;3.67;;
17127;SDS011;8679;50.842;4.322;2024-03-22T12:10:00;4.40;;;2.83;;
17127;SDS011;8679;50.842;4.322;2024-03-22T12:12:26;6.67;;;3.27;;
17127;SDS011;8679;50.842;4.322;2024-03-22T12:14:52;7.90;;;3.50;;
17127;SDS011;8679;50.842;4.322;2024-03-22T12:17:18;6.03;;;2.73;;
17127;SDS011;8679;50.842;4.322;2024-03-22T12:19:44;7.97;;;3.50;;
17127;SDS011;8679;50.842;4.322;2024-03-22T12:22:10;5.67;;;3.17;;
17127;SDS011;8679;50.842;4.322;2024-03-22T12:24:37;4.83;;;2.97;;
17127;SDS011;8679;50.842;4.322;2024-03-22T12:27:03;5.60;;;3.40;;
17127;SDS011;8679;50.842;4.322;2024-03-22T12:29:32;4.47;;;2.90;;
17127;SDS011;8679;50.842;4.322;2024-03-22T12:31:58;6.70;;;3.27;;
17127;SDS011;8679;50.842;4.322;2024-03-22T12:34:26;10.33;;;3.37;;
17127;SDS011;8679;50.842;4.322;2024-03-22T12:36:54;4.23;;;3.13;;
17127;SDS011;8679;50.842;4.322;2024-03-22T12:39:20;8.67;;;3.60;;
17127;SDS011;8679;50.842;4.322;2024-03-22T12:41:46;5.50;;;2.70;;
17127;SDS011;8679;50.842;4.322;2024-03-22T12:44:12;5.60;;;2.70;;
17127;SDS011;8679;50.842;4.322;2024-03-22T12:46:38;11.30;;;2.93;;
17127;SDS011;8679;50.842;4.322;2024-03-22T12:49:07;7.23;;;2.30;;
17127;SDS011;8679;50.842;4.322;2024-03-22T12:51:34;4.87;;;2.20;;
17127;SDS011;8679;50.842;4.322;2024-03-22T12:54:01;19.53;;;3.90;;
17127;SDS011;8679;50.842;4.322;2024-03-22T12:56:27;7.33;;;2.50;;
17127;SDS011;8679;50.842;4.322;2024-03-22T12:58:53;4.90;;;2.77;;
17127;SDS011;8679;50.842;4.322;2024-03-22T13:01:19;5.03;;;2.80;;
17127;SDS011;8679;50.842;4.322;2024-03-22T13:03:45;6.43;;;2.83;;
17127;SDS011;8679;50.842;4.322;2024-03-22T13:06:11;6.20;;;2.60;;
17127;SDS011;8679;50.842;4.322;2024-03-22T13:08:37;5.70;;;2.77;;
17127;SDS011;8679;50.842;4.322;2024-03-22T13:11:04;3.50;;;2.17;;
17127;SDS011;8679;50.842;4.322;2024-03-22T13:13:30;3.37;;;2.07;;
17127;SDS011;8679;50.842;4.322;2024-03-22T13:15:56;6.33;;;2.23;;
17127;SDS011;8679;50.842;4.322;2024-03-22T13:18:22;7.47;;;2.33;;
17127;SDS011;8679;50.842;4.322;2024-03-22T13:20:48;2.50;;;1.53;;
17127;SDS011;8679;50.842;4.322;2024-03-22T13:23:14;9.00;;;2.73;;
17127;SDS011;8679;50.842;4.322;2024-03-22T13:25:40;7.73;;;3.67;;
17127;SDS011;8679;50.842;4.322;2024-03-22T13:28:06;5.83;;;2.63;;
17127;SDS011;8679;50.842;4.322;2024-03-22T13:30:32;8.47;;;3.23;;
17127;SDS011;8679;50.842;4.322;2024-03-22T13:33:00;6.43;;;2.70;;
17127;SDS011;8679;50.842;4.322;2024-03-22T13:35:26;8.00;;;2.10;;
17127;SDS011;8679;50.842;4.322;2024-03-22T13:37:53;3.37;;;1.90;;
17127;SDS011;8679;50.842;4.322;2024-03-22T13:40:19;5.20;;;2.37;;
17127;SDS011;8679;50.842;4.322;2024-03-22T13:42:45;7.77;;;2.60;;
17127;SDS011;8679;50.842;4.322;2024-03-22T13:45:11;8.80;;;3.17;;
17127;SDS011;8679;50.842;4.322;2024-03-22T13:47:37;3.63;;;2.20;;
17127;SDS011;8679;50.842;4.322;2024-03-22T13:50:08;3.43;;;2.07;;
17127;SDS011;8679;50.842;4.322;2024-03-22T13:52:34;4.17;;;2.37;;
17127;SDS011;8679;50.842;4.322;2024-03-22T13:55:03;3.93;;;2.27;;
17127;SDS011;8679;50.842;4.322;2024-03-22T13:57:29;4.30;;;2.43;;
17127;SDS011;8679;50.842;4.322;2024-03-22T13:59:56;4.17;;;2.27;;
17127;SDS011;8679;50.842;4.322;2024-03-22T14:02:22;5.70;;;3.07;;
17127;SDS011;8679;50.842;4.322;2024-03-22T14:04:48;6.23;;;2.90;;
17127;SDS011;8679;50.842;4.322;2024-03-22T14:07:14;5.17;;;2.10;;
17127;SDS011;8679;50.842;4.322;2024-03-22T14:09:40;8.33;;;2.70;;
17127;SDS011;8679;50.842;4.322;2024-03-22T14:12:08;3.70;;;2.70;;
17127;SDS011;8679;50.842;4.322;2024-03-22T14:14:34;7.03;;;2.73;;
17127;SDS011;8679;50.842;4.322;2024-03-22T14:17:00;2.73;;;1.77;;
17127;SDS011;8679;50.842;4.322;2024-03-22T14:19:27;2.97;;;1.70;;
17127;SDS011;8679;50.842;4.322;2024-03-22T14:21:53;4.07;;;1.60;;
17127;SDS011;8679;50.842;4.322;2024-03-22T14:24:19;3.67;;;2.67;;
17127;SDS011;8679;50.842;4.322;2024-03-22T14:26:45;7.80;;;2.80;;
17127;SDS011;8679;50.842;4.322;2024-03-22T14:29:11;5.17;;;2.23;;
17127;SDS011;8679;50.842;4.322;2024-03-22T14:31:38;3.67;;;2.23;;
17127;SDS011;8679;50.842;4.322;2024-03-22T14:34:07;3.40;;;2.43;;
17127;SDS011;8679;50.842;4.322;2024-03-22T14:36:33;3.13;;;1.80;;
17127;SDS011;8679;50.842;4.322;2024-03-22T14:39:00;3.60;;;2.10;;
17127;SDS011;8679;50.842;4.322;2024-03-22T14:41:30;3.83;;;2.23;;
17127;SDS011;8679;50.842;4.322;2024-03-22T14:43:56;2.20;;;1.73;;
17127;SDS011;8679;50.842;4.322;2024-03-22T14:46:22;3.43;;;2.50;;
17127;SDS011;8679;50.842;4.322;2024-03-22T14:48:53;4.50;;;2.17;;
17127;SDS011;8679;50.842;4.322;2024-03-22T14:51:20;3.90;;;3.00;;